This is the latest recevied weather packets stored in our database for station/object DG4MJS-10. If no packets are shown the sender has not sent any weather packets the latest 10 day(s).
| Time | Temp. | Humidity | Pressure | Rain* | Wind** | Luminosity | Snow |
|---|---|---|---|---|---|---|---|
| 1788202782 | 21.67° C | 53% | 1019.1 hPa | - | - | - | - |
| 1788201881 | 22.22° C | 49% | 1018.7 hPa | - | - | - | - |
| 1788200981 | 22.22° C | 47% | 1018.4 hPa | - | - | - | - |
| 1788200081 | 22.22° C | 45% | 1018.2 hPa | - | - | - | - |
| 1788199181 | 22.78° C | 42% | 1017.9 hPa | - | - | - | - |
| 1788198281 | 22.78° C | 42% | 1017.7 hPa | - | - | - | - |
| 1788197381 | 23.33° C | 39% | 1017.3 hPa | - | - | - | - |
| 1788196481 | 23.33° C | 37% | 1017.2 hPa | - | - | - | - |
| 1788195581 | 23.89° C | 36% | 1017.1 hPa | - | - | - | - |
| 1788194680 | 24.44° C | 36% | 1017 hPa | - | - | - | - |
| 1788193780 | 25° C | 36% | 1017 hPa | - | - | - | - |
| 1788192883 | 25° C | 37% | 1016.8 hPa | - | - | - | - |
| 1788191982 | 24.44° C | 39% | 1016.8 hPa | - | - | - | - |
| 1788190182 | 24.44° C | 41% | 1016.8 hPa | - | - | - | - |
| 1788188382 | 25° C | 38% | 1016.9 hPa | - | - | - | - |
| 1788187482 | 25° C | 38% | 1017 hPa | - | - | - | - |
| 1788186582 | 24.44° C | 39% | 1017.1 hPa | - | - | - | - |
| 1788185682 | 25° C | 38% | 1017 hPa | - | - | - | - |
| 1788184781 | 24.44° C | 40% | 1017.2 hPa | - | - | - | - |
| 1788183881 | 25° C | 40% | 1017.2 hPa | - | - | - | - |
| 1788182081 | 23.89° C | 43% | 1017.3 hPa | - | - | - | - |
| 1788181181 | 23.33° C | 42% | 1017.5 hPa | - | - | - | - |
| 1788180281 | 22.78° C | 43% | 1017.3 hPa | - | - | - | - |
| 1788179381 | 22.78° C | 44% | 1017.5 hPa | - | - | - | - |
| 1788178481 | 22.78° C | 45% | 1017.4 hPa | - | - | - | - |
* Rain since midnight (hover to see other rain measurements)
** Current wind speed in m/s (hover to see current wind gust speed)